sensor_id;sensor_type;location;lat;lon;timestamp;temperature;humidity
3300;DHT22;1662;49.310;8.134;2022-12-07T00:01:17;4.80;99.90
3300;DHT22;1662;49.310;8.134;2022-12-07T00:03:44;4.80;99.90
3300;DHT22;1662;49.310;8.134;2022-12-07T00:06:12;4.80;99.90
3300;DHT22;1662;49.310;8.134;2022-12-07T00:08:38;4.80;99.90
3300;DHT22;1662;49.310;8.134;2022-12-07T00:11:13;4.80;99.90
3300;DHT22;1662;49.310;8.134;2022-12-07T00:16:17;4.80;99.90
3300;DHT22;1662;49.310;8.134;2022-12-07T00:18:44;4.80;99.90
3300;DHT22;1662;49.310;8.134;2022-12-07T00:21:18;4.80;99.90
3300;DHT22;1662;49.310;8.134;2022-12-07T00:23:47;4.80;99.90
3300;DHT22;1662;49.310;8.134;2022-12-07T00:26:16;4.70;99.90
3300;DHT22;1662;49.310;8.134;2022-12-07T00:28:53;4.70;99.90
3300;DHT22;1662;49.310;8.134;2022-12-07T00:31:21;4.70;99.90
3300;DHT22;1662;49.310;8.134;2022-12-07T00:36:22;4.70;99.90
3300;DHT22;1662;49.310;8.134;2022-12-07T00:38:48;4.80;99.90
3300;DHT22;1662;49.310;8.134;2022-12-07T00:41:15;4.80;99.90
3300;DHT22;1662;49.310;8.134;2022-12-07T00:43:42;4.80;99.90
3300;DHT22;1662;49.310;8.134;2022-12-07T00:46:11;4.80;99.90
3300;DHT22;1662;49.310;8.134;2022-12-07T00:48:37;4.80;99.90
3300;DHT22;1662;49.310;8.134;2022-12-07T00:51:03;4.80;99.90
3300;DHT22;1662;49.310;8.134;2022-12-07T00:56:15;4.80;99.90
3300;DHT22;1662;49.310;8.134;2022-12-07T00:58:41;4.80;99.90
3300;DHT22;1662;49.310;8.134;2022-12-07T01:01:08;4.70;99.90
3300;DHT22;1662;49.310;8.134;2022-12-07T01:03:35;4.80;99.90
3300;DHT22;1662;49.310;8.134;2022-12-07T01:06:01;4.80;99.90
3300;DHT22;1662;49.310;8.134;2022-12-07T01:08:27;4.80;99.90
3300;DHT22;1662;49.310;8.134;2022-12-07T01:11:05;4.90;99.90
3300;DHT22;1662;49.310;8.134;2022-12-07T01:15:44;4.90;99.90
3300;DHT22;1662;49.310;8.134;2022-12-07T01:18:11;4.90;99.90
3300;DHT22;1662;49.310;8.134;2022-12-07T01:20:36;4.90;99.90
3300;DHT22;1662;49.310;8.134;2022-12-07T01:23:04;4.90;99.90
3300;DHT22;1662;49.310;8.134;2022-12-07T01:25:30;4.80;99.90
3300;DHT22;1662;49.310;8.134;2022-12-07T01:27:56;4.90;99.90
3300;DHT22;1662;49.310;8.134;2022-12-07T01:30:24;4.90;99.90
3300;DHT22;1662;49.310;8.134;2022-12-07T01:35:26;4.90;99.90
3300;DHT22;1662;49.310;8.134;2022-12-07T01:37:52;4.90;99.90
3300;DHT22;1662;49.310;8.134;2022-12-07T01:40:18;4.90;99.90
3300;DHT22;1662;49.310;8.134;2022-12-07T01:42:46;4.90;99.90
3300;DHT22;1662;49.310;8.134;2022-12-07T01:47:56;4.80;99.90
3300;DHT22;1662;49.310;8.134;2022-12-07T01:50:26;4.80;99.90
3300;DHT22;1662;49.310;8.134;2022-12-07T01:55:41;4.80;99.90
3300;DHT22;1662;49.310;8.134;2022-12-07T01:58:08;4.80;99.90
3300;DHT22;1662;49.310;8.134;2022-12-07T02:00:33;4.80;99.90
3300;DHT22;1662;49.310;8.134;2022-12-07T02:03:13;4.80;99.90
3300;DHT22;1662;49.310;8.134;2022-12-07T02:05:41;4.80;99.90
3300;DHT22;1662;49.310;8.134;2022-12-07T02:08:08;4.90;99.90
3300;DHT22;1662;49.310;8.134;2022-12-07T02:10:34;4.90;99.90
3300;DHT22;1662;49.310;8.134;2022-12-07T02:18:35;4.80;99.90
3300;DHT22;1662;49.310;8.134;2022-12-07T02:36:52;4.80;99.90
3300;DHT22;1662;49.310;8.134;2022-12-07T02:39:27;4.70;99.90
3300;DHT22;1662;49.310;8.134;2022-12-07T02:41:58;4.70;99.90
3300;DHT22;1662;49.310;8.134;2022-12-07T02:44:27;4.70;99.90
3300;DHT22;1662;49.310;8.134;2022-12-07T02:47:01;4.80;99.90
3300;DHT22;1662;49.310;8.134;2022-12-07T02:49:29;4.70;99.90
3300;DHT22;1662;49.310;8.134;2022-12-07T02:51:55;4.90;99.90
3300;DHT22;1662;49.310;8.134;2022-12-07T03:07:38;4.80;99.90
3300;DHT22;1662;49.310;8.134;2022-12-07T03:18:19;4.80;99.90
3300;DHT22;1662;49.310;8.134;2022-12-07T03:20:50;4.80;99.90
3300;DHT22;1662;49.310;8.134;2022-12-07T03:23:18;4.80;99.90
3300;DHT22;1662;49.310;8.134;2022-12-07T03:25:47;4.70;99.90
3300;DHT22;1662;49.310;8.134;2022-12-07T03:28:17;4.80;99.90
3300;DHT22;1662;49.310;8.134;2022-12-07T03:31:15;4.80;99.90
3300;DHT22;1662;49.310;8.134;2022-12-07T03:38:13;4.80;99.90
3300;DHT22;1662;49.310;8.134;2022-12-07T03:40:52;4.80;99.90
3300;DHT22;1662;49.310;8.134;2022-12-07T03:43:23;4.80;99.90
3300;DHT22;1662;49.310;8.134;2022-12-07T03:46:03;5.00;99.90
3300;DHT22;1662;49.310;8.134;2022-12-07T03:48:37;4.80;99.90
3300;DHT22;1662;49.310;8.134;2022-12-07T03:51:20;4.90;99.90
3300;DHT22;1662;49.310;8.134;2022-12-07T03:55:25;4.90;99.90
3300;DHT22;1662;49.310;8.134;2022-12-07T03:57:54;4.80;99.90
3300;DHT22;1662;49.310;8.134;2022-12-07T04:00:20;4.80;99.90
3300;DHT22;1662;49.310;8.134;2022-12-07T04:02:50;4.80;99.90
3300;DHT22;1662;49.310;8.134;2022-12-07T04:05:16;4.80;99.90
3300;DHT22;1662;49.310;8.134;2022-12-07T04:07:42;4.80;99.90
3300;DHT22;1662;49.310;8.134;2022-12-07T04:12:46;4.80;99.90
3300;DHT22;1662;49.310;8.134;2022-12-07T04:15:12;4.80;99.90
3300;DHT22;1662;49.310;8.134;2022-12-07T04:17:37;4.80;99.90
3300;DHT22;1662;49.310;8.134;2022-12-07T04:20:04;4.80;99.90
3300;DHT22;1662;49.310;8.134;2022-12-07T04:22:30;4.80;99.90
3300;DHT22;1662;49.310;8.134;2022-12-07T04:24:56;4.80;99.90
3300;DHT22;1662;49.310;8.134;2022-12-07T04:27:21;4.80;99.90
3300;DHT22;1662;49.310;8.134;2022-12-07T04:29:47;4.80;99.90
3300;DHT22;1662;49.310;8.134;2022-12-07T04:33:30;4.70;99.90
3300;DHT22;1662;49.310;8.134;2022-12-07T04:35:56;4.80;99.90
3300;DHT22;1662;49.310;8.134;2022-12-07T04:38:21;4.80;99.90
3300;DHT22;1662;49.310;8.134;2022-12-07T04:40:47;4.90;99.90
3300;DHT22;1662;49.310;8.134;2022-12-07T04:43:12;4.90;99.90
3300;DHT22;1662;49.310;8.134;2022-12-07T04:45:38;4.90;99.90
3300;DHT22;1662;49.310;8.134;2022-12-07T04:48:04;4.90;99.90
3300;DHT22;1662;49.310;8.134;2022-12-07T04:52:59;4.90;99.90
3300;DHT22;1662;49.310;8.134;2022-12-07T04:55:24;4.90;99.90
3300;DHT22;1662;49.310;8.134;2022-12-07T04:57:50;4.80;99.90
3300;DHT22;1662;49.310;8.134;2022-12-07T05:00:15;4.80;99.90
3300;DHT22;1662;49.310;8.134;2022-12-07T05:02:41;4.80;99.90
3300;DHT22;1662;49.310;8.134;2022-12-07T05:05:07;4.80;99.90
3300;DHT22;1662;49.310;8.134;2022-12-07T05:07:32;4.90;99.90
3300;DHT22;1662;49.310;8.134;2022-12-07T05:12:54;4.80;99.90
3300;DHT22;1662;49.310;8.134;2022-12-07T05:15:20;4.90;99.90
3300;DHT22;1662;49.310;8.134;2022-12-07T05:17:45;4.90;99.90
3300;DHT22;1662;49.310;8.134;2022-12-07T05:20:13;4.90;99.90
3300;DHT22;1662;49.310;8.134;2022-12-07T05:22:39;4.90;99.90
3300;DHT22;1662;49.310;8.134;2022-12-07T05:25:05;4.90;99.90
3300;DHT22;1662;49.310;8.134;2022-12-07T05:27:33;5.00;99.90
3300;DHT22;1662;49.310;8.134;2022-12-07T05:32:05;4.90;99.90
3300;DHT22;1662;49.310;8.134;2022-12-07T05:34:31;4.90;99.90
3300;DHT22;1662;49.310;8.134;2022-12-07T05:36:56;4.90;99.90
3300;DHT22;1662;49.310;8.134;2022-12-07T05:39:22;4.90;99.90
3300;DHT22;1662;49.310;8.134;2022-12-07T05:41:47;5.00;99.90
3300;DHT22;1662;49.310;8.134;2022-12-07T05:44:32;5.00;99.90
3300;DHT22;1662;49.310;8.134;2022-12-07T05:49:54;5.10;99.90
3300;DHT22;1662;49.310;8.134;2022-12-07T05:52:20;5.20;99.90
3300;DHT22;1662;49.310;8.134;2022-12-07T05:54:46;5.10;99.90
3300;DHT22;1662;49.310;8.134;2022-12-07T05:57:11;5.00;99.90
3300;DHT22;1662;49.310;8.134;2022-12-07T05:59:37;5.00;99.90
3300;DHT22;1662;49.310;8.134;2022-12-07T06:02:06;5.00;99.90
3300;DHT22;1662;49.310;8.134;2022-12-07T06:04:35;4.90;99.90
3300;DHT22;1662;49.310;8.134;2022-12-07T06:09:08;4.90;99.90
3300;DHT22;1662;49.310;8.134;2022-12-07T06:11:34;4.90;99.90
3300;DHT22;1662;49.310;8.134;2022-12-07T06:14:18;4.90;99.90
3300;DHT22;1662;49.310;8.134;2022-12-07T06:16:44;4.90;99.90
3300;DHT22;1662;49.310;8.134;2022-12-07T06:19:09;4.80;99.90
3300;DHT22;1662;49.310;8.134;2022-12-07T06:21:35;4.90;99.90
3300;DHT22;1662;49.310;8.134;2022-12-07T06:24:00;4.90;99.90
3300;DHT22;1662;49.310;8.134;2022-12-07T06:28:32;4.90;99.90
3300;DHT22;1662;49.310;8.134;2022-12-07T06:31:01;4.80;99.90
3300;DHT22;1662;49.310;8.134;2022-12-07T06:33:27;4.80;99.90
3300;DHT22;1662;49.310;8.134;2022-12-07T06:35:55;4.90;99.90
3300;DHT22;1662;49.310;8.134;2022-12-07T06:38:21;4.90;99.90
3300;DHT22;1662;49.310;8.134;2022-12-07T06:40:47;5.10;99.90
3300;DHT22;1662;49.310;8.134;2022-12-07T06:43:13;5.10;99.90
3300;DHT22;1662;49.310;8.134;2022-12-07T06:47:58;5.10;99.90
3300;DHT22;1662;49.310;8.134;2022-12-07T06:50:23;5.00;99.90
3300;DHT22;1662;49.310;8.134;2022-12-07T06:52:50;5.00;99.90
3300;DHT22;1662;49.310;8.134;2022-12-07T06:55:16;5.00;99.90
3300;DHT22;1662;49.310;8.134;2022-12-07T06:57:42;5.00;99.90
3300;DHT22;1662;49.310;8.134;2022-12-07T07:00:08;5.00;99.90
3300;DHT22;1662;49.310;8.134;2022-12-07T07:02:33;5.00;99.90
3300;DHT22;1662;49.310;8.134;2022-12-07T07:06:38;5.00;99.90
3300;DHT22;1662;49.310;8.134;2022-12-07T07:09:04;5.00;99.90
3300;DHT22;1662;49.310;8.134;2022-12-07T07:11:30;5.00;99.90
3300;DHT22;1662;49.310;8.134;2022-12-07T07:14:00;5.00;99.90
3300;DHT22;1662;49.310;8.134;2022-12-07T07:16:29;5.00;99.90
3300;DHT22;1662;49.310;8.134;2022-12-07T07:18:55;5.10;99.90
3300;DHT22;1662;49.310;8.134;2022-12-07T07:21:21;5.00;99.90
3300;DHT22;1662;49.310;8.134;2022-12-07T07:25:21;5.10;99.90
3300;DHT22;1662;49.310;8.134;2022-12-07T07:27:47;5.10;99.90
3300;DHT22;1662;49.310;8.134;2022-12-07T07:30:12;5.00;99.90
3300;DHT22;1662;49.310;8.134;2022-12-07T07:32:38;5.00;99.90
3300;DHT22;1662;49.310;8.134;2022-12-07T07:35:04;5.00;99.90
3300;DHT22;1662;49.310;8.134;2022-12-07T07:37:30;5.00;99.90
3300;DHT22;1662;49.310;8.134;2022-12-07T07:39:55;5.00;99.90
3300;DHT22;1662;49.310;8.134;2022-12-07T07:42:21;5.00;99.90
3300;DHT22;1662;49.310;8.134;2022-12-07T07:45:47;5.00;99.90
3300;DHT22;1662;49.310;8.134;2022-12-07T07:48:12;5.00;99.90
3300;DHT22;1662;49.310;8.134;2022-12-07T07:50:38;5.00;99.90
3300;DHT22;1662;49.310;8.134;2022-12-07T07:53:04;5.00;99.90
3300;DHT22;1662;49.310;8.134;2022-12-07T07:55:31;5.00;99.90
3300;DHT22;1662;49.310;8.134;2022-12-07T07:57:57;5.00;99.90
3300;DHT22;1662;49.310;8.134;2022-12-07T08:00:23;5.00;99.90
3300;DHT22;1662;49.310;8.134;2022-12-07T08:04:58;5.00;99.90
3300;DHT22;1662;49.310;8.134;2022-12-07T08:07:23;5.10;99.90
3300;DHT22;1662;49.310;8.134;2022-12-07T08:09:49;5.10;99.90
3300;DHT22;1662;49.310;8.134;2022-12-07T08:12:15;5.10;99.90
3300;DHT22;1662;49.310;8.134;2022-12-07T08:14:40;5.10;99.90
3300;DHT22;1662;49.310;8.134;2022-12-07T08:17:06;5.00;99.90
3300;DHT22;1662;49.310;8.134;2022-12-07T08:19:32;5.00;99.90
3300;DHT22;1662;49.310;8.134;2022-12-07T08:23:57;5.00;99.90
3300;DHT22;1662;49.310;8.134;2022-12-07T08:26:23;5.00;99.90
3300;DHT22;1662;49.310;8.134;2022-12-07T08:28:49;5.10;99.90
3300;DHT22;1662;49.310;8.134;2022-12-07T08:31:16;5.10;99.90
3300;DHT22;1662;49.310;8.134;2022-12-07T08:33:45;5.00;99.90
3300;DHT22;1662;49.310;8.134;2022-12-07T08:36:12;5.00;99.90
3300;DHT22;1662;49.310;8.134;2022-12-07T08:38:40;5.10;99.90
3300;DHT22;1662;49.310;8.134;2022-12-07T08:42:24;5.20;99.90
3300;DHT22;1662;49.310;8.134;2022-12-07T08:44:57;5.20;99.90
3300;DHT22;1662;49.310;8.134;2022-12-07T08:47:24;5.10;99.90
3300;DHT22;1662;49.310;8.134;2022-12-07T08:49:51;5.20;99.90
3300;DHT22;1662;49.310;8.134;2022-12-07T08:52:18;5.40;99.90
3300;DHT22;1662;49.310;8.134;2022-12-07T08:54:44;5.40;99.90
3300;DHT22;1662;49.310;8.134;2022-12-07T08:57:10;5.40;99.90
3300;DHT22;1662;49.310;8.134;2022-12-07T09:00:50;5.30;99.90
3300;DHT22;1662;49.310;8.134;2022-12-07T09:03:16;5.30;99.90
3300;DHT22;1662;49.310;8.134;2022-12-07T09:05:41;5.30;99.90
3300;DHT22;1662;49.310;8.134;2022-12-07T09:08:07;5.40;99.90
3300;DHT22;1662;49.310;8.134;2022-12-07T09:10:33;5.40;99.90
3300;DHT22;1662;49.310;8.134;2022-12-07T09:13:01;5.40;99.90
3300;DHT22;1662;49.310;8.134;2022-12-07T09:15:28;5.40;99.90
3300;DHT22;1662;49.310;8.134;2022-12-07T09:19:47;5.40;99.90
3300;DHT22;1662;49.310;8.134;2022-12-07T09:22:15;5.40;99.90
3300;DHT22;1662;49.310;8.134;2022-12-07T09:24:40;5.50;99.90
3300;DHT22;1662;49.310;8.134;2022-12-07T09:27:06;5.50;99.90
3300;DHT22;1662;49.310;8.134;2022-12-07T09:29:31;5.50;99.90
3300;DHT22;1662;49.310;8.134;2022-12-07T09:31:57;5.50;99.90
3300;DHT22;1662;49.310;8.134;2022-12-07T09:34:22;5.60;99.90
3300;DHT22;1662;49.310;8.134;2022-12-07T09:39:14;5.60;99.90
3300;DHT22;1662;49.310;8.134;2022-12-07T09:41:42;6.30;99.90
3300;DHT22;1662;49.310;8.134;2022-12-07T09:44:12;6.10;99.90
3300;DHT22;1662;49.310;8.134;2022-12-07T09:46:40;6.20;99.90
3300;DHT22;1662;49.310;8.134;2022-12-07T09:49:14;6.20;99.90
3300;DHT22;1662;49.310;8.134;2022-12-07T09:51:42;6.10;99.90
3300;DHT22;1662;49.310;8.134;2022-12-07T09:54:12;6.00;99.90
3300;DHT22;1662;49.310;8.134;2022-12-07T09:56:38;6.00;99.90
3300;DHT22;1662;49.310;8.134;2022-12-07T09:59:04;6.00;99.90
3300;DHT22;1662;49.310;8.134;2022-12-07T10:03:12;6.00;99.90
3300;DHT22;1662;49.310;8.134;2022-12-07T10:05:47;6.10;99.90
3300;DHT22;1662;49.310;8.134;2022-12-07T10:08:16;6.10;99.90
3300;DHT22;1662;49.310;8.134;2022-12-07T10:10:43;6.10;99.90
3300;DHT22;1662;49.310;8.134;2022-12-07T10:13:12;6.10;99.90
3300;DHT22;1662;49.310;8.134;2022-12-07T10:15:51;6.10;99.90
3300;DHT22;1662;49.310;8.134;2022-12-07T10:21:37;6.10;99.90
3300;DHT22;1662;49.310;8.134;2022-12-07T10:24:14;6.10;99.90
3300;DHT22;1662;49.310;8.134;2022-12-07T10:31:54;6.10;99.90
3300;DHT22;1662;49.310;8.134;2022-12-07T10:34:27;6.10;99.90
3300;DHT22;1662;49.310;8.134;2022-12-07T10:37:12;6.10;99.90
3300;DHT22;1662;49.310;8.134;2022-12-07T10:40:35;6.10;99.90
3300;DHT22;1662;49.310;8.134;2022-12-07T10:51:53;6.20;99.90
3300;DHT22;1662;49.310;8.134;2022-12-07T10:55:08;6.20;99.90
3300;DHT22;1662;49.310;8.134;2022-12-07T11:00:08;6.20;99.90
3300;DHT22;1662;49.310;8.134;2022-12-07T11:03:09;6.20;99.90
3300;DHT22;1662;49.310;8.134;2022-12-07T11:05:49;6.10;99.90
3300;DHT22;1662;49.310;8.134;2022-12-07T11:11:20;6.00;99.90
3300;DHT22;1662;49.310;8.134;2022-12-07T11:14:15;6.00;99.90
3300;DHT22;1662;49.310;8.134;2022-12-07T11:22:03;6.10;99.90
3300;DHT22;1662;49.310;8.134;2022-12-07T11:27:22;6.10;99.90
3300;DHT22;1662;49.310;8.134;2022-12-07T11:38:16;6.20;99.90
3300;DHT22;1662;49.310;8.134;2022-12-07T11:40:48;6.10;99.90
3300;DHT22;1662;49.310;8.134;2022-12-07T11:43:27;6.10;99.90
3300;DHT22;1662;49.310;8.134;2022-12-07T11:46:08;6.20;99.90
3300;DHT22;1662;49.310;8.134;2022-12-07T11:51:53;6.20;99.90
3300;DHT22;1662;49.310;8.134;2022-12-07T11:57:41;6.20;99.90
3300;DHT22;1662;49.310;8.134;2022-12-07T12:00:15;6.20;99.90
3300;DHT22;1662;49.310;8.134;2022-12-07T12:03:08;6.10;99.90
3300;DHT22;1662;49.310;8.134;2022-12-07T12:05:35;6.20;99.90
3300;DHT22;1662;49.310;8.134;2022-12-07T12:08:12;6.20;99.90
3300;DHT22;1662;49.310;8.134;2022-12-07T12:22:26;6.20;99.90
3300;DHT22;1662;49.310;8.134;2022-12-07T12:24:53;6.20;99.90
3300;DHT22;1662;49.310;8.134;2022-12-07T12:29:53;6.20;99.90
3300;DHT22;1662;49.310;8.134;2022-12-07T12:46:56;6.40;99.90
3300;DHT22;1662;49.310;8.134;2022-12-07T12:51:50;7.40;99.90
3300;DHT22;1662;49.310;8.134;2022-12-07T12:59:39;7.00;99.90
3300;DHT22;1662;49.310;8.134;2022-12-07T13:02:15;6.90;99.90
3300;DHT22;1662;49.310;8.134;2022-12-07T13:04:57;6.80;99.90
3300;DHT22;1662;49.310;8.134;2022-12-07T13:27:43;6.50;99.90
3300;DHT22;1662;49.310;8.134;2022-12-07T13:30:18;6.40;99.90
3300;DHT22;1662;49.310;8.134;2022-12-07T13:35:43;6.50;99.90
3300;DHT22;1662;49.310;8.134;2022-12-07T13:38:22;6.50;99.90
3300;DHT22;1662;49.310;8.134;2022-12-07T13:41:11;6.50;99.90
3300;DHT22;1662;49.310;8.134;2022-12-07T13:43:44;6.50;99.90
3300;DHT22;1662;49.310;8.134;2022-12-07T13:46:11;6.50;99.90
3300;DHT22;1662;49.310;8.134;2022-12-07T13:48:45;6.50;99.90
3300;DHT22;1662;49.310;8.134;2022-12-07T13:51:24;6.50;99.90
3300;DHT22;1662;49.310;8.134;2022-12-07T13:55:28;6.40;99.90
3300;DHT22;1662;49.310;8.134;2022-12-07T13:57:54;6.40;99.90
3300;DHT22;1662;49.310;8.134;2022-12-07T14:05:28;6.30;99.90
3300;DHT22;1662;49.310;8.134;2022-12-07T14:10:29;6.30;99.90
3300;DHT22;1662;49.310;8.134;2022-12-07T14:15:31;6.40;99.90
3300;DHT22;1662;49.310;8.134;2022-12-07T14:18:00;6.40;99.90
3300;DHT22;1662;49.310;8.134;2022-12-07T14:20:40;6.50;99.90
3300;DHT22;1662;49.310;8.134;2022-12-07T14:23:25;6.50;99.90
3300;DHT22;1662;49.310;8.134;2022-12-07T14:25:52;6.40;99.90
3300;DHT22;1662;49.310;8.134;2022-12-07T14:28:27;6.40;99.90
3300;DHT22;1662;49.310;8.134;2022-12-07T14:30:53;6.40;99.90
3300;DHT22;1662;49.310;8.134;2022-12-07T14:35:21;6.30;99.90
3300;DHT22;1662;49.310;8.134;2022-12-07T14:37:48;6.30;99.90
3300;DHT22;1662;49.310;8.134;2022-12-07T14:40:22;6.30;99.90
3300;DHT22;1662;49.310;8.134;2022-12-07T14:42:50;6.30;99.90
3300;DHT22;1662;49.310;8.134;2022-12-07T14:45:20;6.20;99.90
3300;DHT22;1662;49.310;8.134;2022-12-07T14:47:48;6.10;99.90
3300;DHT22;1662;49.310;8.134;2022-12-07T14:52:55;6.10;99.90
3300;DHT22;1662;49.310;8.134;2022-12-07T14:55:26;6.10;99.90
3300;DHT22;1662;49.310;8.134;2022-12-07T14:57:53;6.00;99.90
3300;DHT22;1662;49.310;8.134;2022-12-07T15:00:19;6.00;99.90
3300;DHT22;1662;49.310;8.134;2022-12-07T15:02:49;6.00;99.90
3300;DHT22;1662;49.310;8.134;2022-12-07T15:05:16;6.00;99.90
3300;DHT22;1662;49.310;8.134;2022-12-07T15:07:42;6.00;99.90
3300;DHT22;1662;49.310;8.134;2022-12-07T15:10:20;6.00;99.90
3300;DHT22;1662;49.310;8.134;2022-12-07T15:12:46;6.00;99.90
3300;DHT22;1662;49.310;8.134;2022-12-07T15:15:12;6.00;99.90
3300;DHT22;1662;49.310;8.134;2022-12-07T15:17:38;5.90;99.90
3300;DHT22;1662;49.310;8.134;2022-12-07T15:20:04;5.90;99.90
3300;DHT22;1662;49.310;8.134;2022-12-07T15:22:30;5.90;99.90
3300;DHT22;1662;49.310;8.134;2022-12-07T15:24:57;5.80;99.90
3300;DHT22;1662;49.310;8.134;2022-12-07T15:27:23;5.80;99.90
3300;DHT22;1662;49.310;8.134;2022-12-07T15:29:51;5.80;99.90
3300;DHT22;1662;49.310;8.134;2022-12-07T15:32:19;5.80;99.90
3300;DHT22;1662;49.310;8.134;2022-12-07T15:34:44;5.90;99.90
3300;DHT22;1662;49.310;8.134;2022-12-07T15:37:10;5.80;99.90
3300;DHT22;1662;49.310;8.134;2022-12-07T15:39:36;5.70;99.90
3300;DHT22;1662;49.310;8.134;2022-12-07T15:42:02;5.70;99.90
3300;DHT22;1662;49.310;8.134;2022-12-07T15:44:28;5.60;99.90
3300;DHT22;1662;49.310;8.134;2022-12-07T15:47:14;5.40;99.90
3300;DHT22;1662;49.310;8.134;2022-12-07T15:49:42;5.40;99.90
3300;DHT22;1662;49.310;8.134;2022-12-07T15:52:08;5.50;99.90
3300;DHT22;1662;49.310;8.134;2022-12-07T15:54:33;5.40;99.90
3300;DHT22;1662;49.310;8.134;2022-12-07T15:56:59;5.30;99.90
3300;DHT22;1662;49.310;8.134;2022-12-07T15:59:27;5.30;99.90
3300;DHT22;1662;49.310;8.134;2022-12-07T16:01:53;5.30;99.90
3300;DHT22;1662;49.310;8.134;2022-12-07T16:04:19;5.20;99.90
3300;DHT22;1662;49.310;8.134;2022-12-07T16:06:44;5.20;99.90
3300;DHT22;1662;49.310;8.134;2022-12-07T16:09:10;5.20;99.90
3300;DHT22;1662;49.310;8.134;2022-12-07T16:13:01;5.20;99.90
3300;DHT22;1662;49.310;8.134;2022-12-07T16:15:27;5.10;99.90
3300;DHT22;1662;49.310;8.134;2022-12-07T16:17:52;5.10;99.90
3300;DHT22;1662;49.310;8.134;2022-12-07T16:20:18;5.20;99.90
3300;DHT22;1662;49.310;8.134;2022-12-07T16:22:44;5.40;99.90
3300;DHT22;1662;49.310;8.134;2022-12-07T16:25:12;5.30;99.90
3300;DHT22;1662;49.310;8.134;2022-12-07T16:27:37;5.30;99.90
3300;DHT22;1662;49.310;8.134;2022-12-07T16:32:35;5.20;99.90
3300;DHT22;1662;49.310;8.134;2022-12-07T16:35:03;5.00;99.90
3300;DHT22;1662;49.310;8.134;2022-12-07T16:37:31;5.00;99.90
3300;DHT22;1662;49.310;8.134;2022-12-07T16:39:57;4.90;99.90
3300;DHT22;1662;49.310;8.134;2022-12-07T16:42:23;4.90;99.90
3300;DHT22;1662;49.310;8.134;2022-12-07T16:44:50;4.90;99.90
3300;DHT22;1662;49.310;8.134;2022-12-07T16:47:16;4.90;99.90
3300;DHT22;1662;49.310;8.134;2022-12-07T16:52:19;4.90;99.90
3300;DHT22;1662;49.310;8.134;2022-12-07T16:54:48;5.00;99.90
3300;DHT22;1662;49.310;8.134;2022-12-07T16:57:14;4.90;99.90
3300;DHT22;1662;49.310;8.134;2022-12-07T16:59:40;4.90;99.90
3300;DHT22;1662;49.310;8.134;2022-12-07T17:02:06;4.90;99.90
3300;DHT22;1662;49.310;8.134;2022-12-07T17:04:33;4.90;99.90
3300;DHT22;1662;49.310;8.134;2022-12-07T17:06:58;4.90;99.90
3300;DHT22;1662;49.310;8.134;2022-12-07T17:09:24;4.80;99.90
3300;DHT22;1662;49.310;8.134;2022-12-07T17:12:59;4.90;99.90
3300;DHT22;1662;49.310;8.134;2022-12-07T17:15:24;4.80;99.90
3300;DHT22;1662;49.310;8.134;2022-12-07T17:17:57;4.80;99.90
3300;DHT22;1662;49.310;8.134;2022-12-07T17:20:25;4.80;99.90
3300;DHT22;1662;49.310;8.134;2022-12-07T17:22:53;4.70;99.90
3300;DHT22;1662;49.310;8.134;2022-12-07T17:25:19;4.70;99.90
3300;DHT22;1662;49.310;8.134;2022-12-07T17:27:46;4.70;99.90
3300;DHT22;1662;49.310;8.134;2022-12-07T17:32:10;4.70;99.90
3300;DHT22;1662;49.310;8.134;2022-12-07T17:34:35;4.80;99.90
3300;DHT22;1662;49.310;8.134;2022-12-07T17:37:02;4.70;99.90
3300;DHT22;1662;49.310;8.134;2022-12-07T17:39:29;4.70;99.90
3300;DHT22;1662;49.310;8.134;2022-12-07T17:41:54;4.70;99.90
3300;DHT22;1662;49.310;8.134;2022-12-07T17:44:39;4.70;99.90
3300;DHT22;1662;49.310;8.134;2022-12-07T17:47:05;4.60;99.90
3300;DHT22;1662;49.310;8.134;2022-12-07T17:50:50;4.70;99.90
3300;DHT22;1662;49.310;8.134;2022-12-07T17:53:35;4.60;99.90
3300;DHT22;1662;49.310;8.134;2022-12-07T17:56:00;4.50;99.90
3300;DHT22;1662;49.310;8.134;2022-12-07T17:58:28;4.50;99.90
3300;DHT22;1662;49.310;8.134;2022-12-07T18:00:56;4.60;99.90
3300;DHT22;1662;49.310;8.134;2022-12-07T18:03:22;4.60;99.90
3300;DHT22;1662;49.310;8.134;2022-12-07T18:05:47;4.60;99.90
3300;DHT22;1662;49.310;8.134;2022-12-07T18:09:47;4.70;99.90
3300;DHT22;1662;49.310;8.134;2022-12-07T18:12:13;4.60;99.90
3300;DHT22;1662;49.310;8.134;2022-12-07T18:14:38;4.50;99.90
3300;DHT22;1662;49.310;8.134;2022-12-07T18:17:04;4.60;99.90
3300;DHT22;1662;49.310;8.134;2022-12-07T18:19:30;4.70;99.90
3300;DHT22;1662;49.310;8.134;2022-12-07T18:21:58;4.70;99.90
3300;DHT22;1662;49.310;8.134;2022-12-07T18:24:23;4.70;99.90
3300;DHT22;1662;49.310;8.134;2022-12-07T18:29:16;4.70;99.90
3300;DHT22;1662;49.310;8.134;2022-12-07T18:31:43;4.60;99.90
3300;DHT22;1662;49.310;8.134;2022-12-07T18:34:12;4.60;99.90
3300;DHT22;1662;49.310;8.134;2022-12-07T18:36:39;4.50;99.90
3300;DHT22;1662;49.310;8.134;2022-12-07T18:39:07;4.40;99.90
3300;DHT22;1662;49.310;8.134;2022-12-07T18:41:32;4.40;99.90
3300;DHT22;1662;49.310;8.134;2022-12-07T18:43:58;4.40;99.90
3300;DHT22;1662;49.310;8.134;2022-12-07T18:49:12;4.40;99.90
3300;DHT22;1662;49.310;8.134;2022-12-07T18:51:41;4.50;99.90
3300;DHT22;1662;49.310;8.134;2022-12-07T18:54:09;4.40;99.90
3300;DHT22;1662;49.310;8.134;2022-12-07T18:56:35;4.20;99.90
3300;DHT22;1662;49.310;8.134;2022-12-07T18:59:02;4.20;99.90
3300;DHT22;1662;49.310;8.134;2022-12-07T19:01:49;4.20;99.90
3300;DHT22;1662;49.310;8.134;2022-12-07T19:04:16;4.10;99.90
3300;DHT22;1662;49.310;8.134;2022-12-07T19:09:11;4.10;99.90
3300;DHT22;1662;49.310;8.134;2022-12-07T19:11:38;4.20;99.90
3300;DHT22;1662;49.310;8.134;2022-12-07T19:14:19;4.20;99.90
3300;DHT22;1662;49.310;8.134;2022-12-07T19:16:46;4.20;99.90
3300;DHT22;1662;49.310;8.134;2022-12-07T19:19:14;4.10;99.90
3300;DHT22;1662;49.310;8.134;2022-12-07T19:21:40;4.20;99.90
3300;DHT22;1662;49.310;8.134;2022-12-07T19:24:06;4.20;99.90
3300;DHT22;1662;49.310;8.134;2022-12-07T19:29:24;4.20;99.90
3300;DHT22;1662;49.310;8.134;2022-12-07T19:31:54;4.10;99.90
3300;DHT22;1662;49.310;8.134;2022-12-07T19:34:22;4.20;99.90
3300;DHT22;1662;49.310;8.134;2022-12-07T19:36:48;4.10;99.90
3300;DHT22;1662;49.310;8.134;2022-12-07T19:39:14;4.10;99.90
3300;DHT22;1662;49.310;8.134;2022-12-07T19:41:40;4.10;99.90
3300;DHT22;1662;49.310;8.134;2022-12-07T19:44:19;4.10;99.90
3300;DHT22;1662;49.310;8.134;2022-12-07T19:49:22;4.10;99.90
3300;DHT22;1662;49.310;8.134;2022-12-07T19:51:50;4.10;99.90
3300;DHT22;1662;49.310;8.134;2022-12-07T19:54:19;4.10;99.90
3300;DHT22;1662;49.310;8.134;2022-12-07T19:56:45;4.10;99.90
3300;DHT22;1662;49.310;8.134;2022-12-07T19:59:12;4.10;99.90
3300;DHT22;1662;49.310;8.134;2022-12-07T20:01:39;4.10;99.90
3300;DHT22;1662;49.310;8.134;2022-12-07T20:04:07;4.10;99.90
3300;DHT22;1662;49.310;8.134;2022-12-07T20:07:31;4.00;99.90
3300;DHT22;1662;49.310;8.134;2022-12-07T20:10:01;3.90;99.90
3300;DHT22;1662;49.310;8.134;2022-12-07T20:12:27;3.90;99.90
3300;DHT22;1662;49.310;8.134;2022-12-07T20:15:14;4.00;99.90
3300;DHT22;1662;49.310;8.134;2022-12-07T20:17:39;4.00;99.90
3300;DHT22;1662;49.310;8.134;2022-12-07T20:20:05;4.00;99.90
3300;DHT22;1662;49.310;8.134;2022-12-07T20:22:31;4.00;99.90
3300;DHT22;1662;49.310;8.134;2022-12-07T20:27:29;4.00;99.90
3300;DHT22;1662;49.310;8.134;2022-12-07T20:29:57;3.90;99.90
3300;DHT22;1662;49.310;8.134;2022-12-07T20:32:24;3.90;99.90
3300;DHT22;1662;49.310;8.134;2022-12-07T20:34:50;3.90;99.90
3300;DHT22;1662;49.310;8.134;2022-12-07T20:37:15;3.90;99.90
3300;DHT22;1662;49.310;8.134;2022-12-07T20:39:41;3.90;99.90
3300;DHT22;1662;49.310;8.134;2022-12-07T20:42:07;3.80;99.90